Time,TemperatureF,DewpointF,PressureIn,WindDirection,WindDirectionDegrees,WindSpeedMPH,WindSpeedGustMPH,Humidity,HourlyPrecipIn,Conditions,Clouds,dailyrainin,SolarRadiationWatts/m^2,SoftwareType,DateUTC
2013-01-18 00:22:00,27.0,21.0,-100.00,WNW,302,4.0,9.0,78,0.00,,,0.19,0.000000,,2013-01-18 05:22:00,
2013-01-18 00:33:00,27.0,21.0,-100.00,WNW,302,4.0,9.0,78,0.00,,,0.19,0.000000,,2013-01-18 05:33:00,
2013-01-18 00:42:00,27.0,21.0,-100.00,WNW,302,4.0,9.0,78,0.00,,,0.19,0.000000,,2013-01-18 05:42:00,
2013-01-18 00:52:00,27.0,21.0,-100.00,WNW,302,4.0,9.0,78,0.00,,,0.19,0.000000,,2013-01-18 05:52:00,
2013-01-18 01:22:00,26.0,20.0,-100.00,WNW,301,4.0,10.0,77,0.00,,,0.19,0.000000,,2013-01-18 06:22:00,
2013-01-18 01:33:00,26.0,20.0,-100.00,WNW,301,4.0,10.0,77,0.00,,,0.19,0.000000,,2013-01-18 06:33:00,
2013-01-18 01:43:00,26.0,20.0,-100.00,WNW,301,4.0,10.0,77,0.00,,,0.19,0.000000,,2013-01-18 06:43:00,
2013-01-18 01:52:00,26.0,20.0,-100.00,WNW,301,4.0,10.0,77,0.00,,,0.19,0.000000,,2013-01-18 06:52:00,
2013-01-18 02:22:00,25.0,19.0,-100.00,NW,311,4.0,9.0,76,0.00,,,0.19,0.000000,,2013-01-18 07:22:00,
2013-01-18 02:33:00,25.0,19.0,-100.00,NW,311,4.0,9.0,76,0.00,,,0.19,0.000000,,2013-01-18 07:33:00,
2013-01-18 02:42:00,25.0,19.0,-100.00,NW,311,4.0,9.0,76,0.00,,,0.19,0.000000,,2013-01-18 07:42:00,
2013-01-18 02:52:00,25.0,19.0,-100.00,NW,311,4.0,9.0,76,0.00,,,0.19,0.000000,,2013-01-18 07:52:00,
2013-01-18 03:22:00,24.0,16.0,-100.00,NW,316,3.0,8.0,71,0.00,,,0.19,0.000000,,2013-01-18 08:22:00,
2013-01-18 03:32:00,24.0,16.0,-100.00,NW,316,3.0,8.0,71,0.00,,,0.19,0.000000,,2013-01-18 08:32:00,
2013-01-18 03:42:00,24.0,16.0,-100.00,NW,316,3.0,8.0,71,0.00,,,0.19,0.000000,,2013-01-18 08:42:00,
2013-01-18 03:52:00,24.0,16.0,-100.00,NW,316,3.0,8.0,71,0.00,,,0.19,0.000000,,2013-01-18 08:52:00,
2013-01-18 04:22:00,22.0,16.0,-100.00,NNW,336,3.0,5.0,76,0.00,,,0.19,0.000000,,2013-01-18 09:22:00,
2013-01-18 04:33:00,22.0,16.0,-100.00,NNW,336,3.0,5.0,76,0.00,,,0.19,0.000000,,2013-01-18 09:33:00,
2013-01-18 04:42:00,22.0,16.0,-100.00,NNW,336,3.0,5.0,76,0.00,,,0.19,0.000000,,2013-01-18 09:42:00,
2013-01-18 04:52:00,22.0,16.0,-100.00,NNW,336,3.0,5.0,76,0.00,,,0.19,0.000000,,2013-01-18 09:52:00,
2013-01-18 05:22:00,21.0,15.0,-100.00,NNW,336,0.0,5.0,78,0.00,,,0.19,0.000000,,2013-01-18 10:22:00,
2013-01-18 05:33:00,21.0,15.0,-100.00,NNW,336,0.0,5.0,78,0.00,,,0.19,0.000000,,2013-01-18 10:33:00,
2013-01-18 05:43:00,21.0,15.0,-100.00,NNW,336,0.0,5.0,78,0.00,,,0.19,0.000000,,2013-01-18 10:43:00,
2013-01-18 05:52:00,21.0,15.0,-100.00,NNW,336,0.0,5.0,78,0.00,,,0.19,0.000000,,2013-01-18 10:52:00,
2013-01-18 06:23:00,20.0,15.0,-100.00,North,351,0.0,0.0,82,0.00,,,0.19,0.000000,,2013-01-18 11:23:00,
2013-01-18 06:33:00,20.0,15.0,-100.00,North,351,0.0,0.0,82,0.00,,,0.19,0.000000,,2013-01-18 11:33:00,
2013-01-18 06:42:00,20.0,15.0,-100.00,North,351,0.0,0.0,82,0.00,,,0.19,0.000000,,2013-01-18 11:42:00,
2013-01-18 06:52:00,20.0,15.0,-100.00,North,351,0.0,0.0,82,0.00,,,0.19,0.000000,,2013-01-18 11:52:00,
2013-01-18 07:23:00,18.0,15.0,-100.00,SE,136,0.0,1.0,89,0.00,,,0.19,0.000000,,2013-01-18 12:23:00,
2013-01-18 07:33:00,18.0,15.0,-100.00,SE,136,0.0,1.0,89,0.00,,,0.19,0.000000,,2013-01-18 12:33:00,
2013-01-18 07:43:00,18.0,15.0,-100.00,SE,136,0.0,1.0,89,0.00,,,0.19,0.000000,,2013-01-18 12:43:00,
2013-01-18 07:52:00,18.0,15.0,-100.00,SE,136,0.0,1.0,89,0.00,,,0.19,0.000000,,2013-01-18 12:52:00,
2013-01-18 08:23:00,18.0,15.0,-100.00,SE,132,0.0,0.0,89,0.00,,,0.19,1.000000,,2013-01-18 13:23:00,
2013-01-18 08:33:00,18.0,15.0,-100.00,SE,132,0.0,0.0,89,0.00,,,0.19,1.000000,,2013-01-18 13:33:00,
2013-01-18 08:43:00,18.0,15.0,-100.00,SE,132,0.0,0.0,89,0.00,,,0.19,1.000000,,2013-01-18 13:43:00,
2013-01-18 08:53:00,18.0,15.0,-100.00,SE,132,0.0,0.0,89,0.00,,,0.19,1.000000,,2013-01-18 13:53:00,
2013-01-18 09:23:00,24.0,17.0,-100.00,South,174,3.0,4.0,74,0.00,,,0.19,44.000000,,2013-01-18 14:23:00,
2013-01-18 09:34:00,24.0,17.0,-100.00,South,174,3.0,4.0,74,0.00,,,0.19,44.000000,,2013-01-18 14:34:00,
2013-01-18 09:43:00,24.0,17.0,-100.00,South,174,3.0,4.0,74,0.00,,,0.19,44.000000,,2013-01-18 14:43:00,
2013-01-18 09:53:00,24.0,17.0,-100.00,South,174,3.0,4.0,74,0.00,,,0.19,44.000000,,2013-01-18 14:53:00,
2013-01-18 10:23:00,28.0,15.0,-100.00,ESE,115,4.0,7.0,58,0.00,,,0.19,174.000000,,2013-01-18 15:23:00,
2013-01-18 10:34:00,28.0,15.0,-100.00,ESE,115,4.0,7.0,58,0.00,,,0.19,174.000000,,2013-01-18 15:34:00,
2013-01-18 10:43:00,28.0,15.0,-100.00,ESE,115,4.0,7.0,58,0.00,,,0.19,174.000000,,2013-01-18 15:43:00,
2013-01-18 10:53:00,28.0,15.0,-100.00,ESE,115,4.0,7.0,58,0.00,,,0.19,174.000000,,2013-01-18 15:53:00,
2013-01-18 11:23:00,30.0,15.0,-100.00,ESE,110,5.0,10.0,53,0.01,,,0.20,261.000000,,2013-01-18 16:23:00,
2013-01-18 11:33:00,30.0,15.0,-100.00,ESE,110,5.0,10.0,53,0.01,,,0.20,261.000000,,2013-01-18 16:33:00,
2013-01-18 11:43:00,30.0,15.0,-100.00,ESE,110,5.0,10.0,53,0.01,,,0.20,261.000000,,2013-01-18 16:43:00,
2013-01-18 11:52:00,30.0,15.0,-100.00,ESE,110,5.0,10.0,53,0.01,,,0.20,261.000000,,2013-01-18 16:52:00,
2013-01-18 12:23:00,33.0,15.0,-100.00,South,182,3.0,7.0,47,0.00,,,0.19,316.000000,,2013-01-18 17:23:00,
2013-01-18 12:34:00,33.0,15.0,-100.00,South,182,3.0,7.0,47,0.00,,,0.19,316.000000,,2013-01-18 17:34:00,
2013-01-18 12:43:00,33.0,15.0,-100.00,South,182,3.0,7.0,47,0.00,,,0.19,316.000000,,2013-01-18 17:43:00,
2013-01-18 12:53:00,33.0,15.0,-100.00,South,182,3.0,7.0,47,0.00,,,0.19,316.000000,,2013-01-18 17:53:00,
2013-01-18 13:24:00,35.0,15.0,-100.00,South,191,5.0,10.0,44,0.01,,,0.19,347.000000,,2013-01-18 18:24:00,
2013-01-18 13:33:00,35.0,15.0,-100.00,South,191,5.0,10.0,44,0.01,,,0.19,347.000000,,2013-01-18 18:33:00,
2013-01-18 13:43:00,35.0,15.0,-100.00,South,191,5.0,10.0,44,0.01,,,0.19,347.000000,,2013-01-18 18:43:00,
2013-01-18 13:52:00,35.0,15.0,-100.00,South,191,5.0,10.0,44,0.01,,,0.19,347.000000,,2013-01-18 18:52:00,
2013-01-18 14:23:00,38.0,18.0,-100.00,SSW,197,5.0,12.0,44,0.00,,,-99.99,227.000000,,2013-01-18 19:23:00,
2013-01-18 14:33:00,38.0,18.0,-100.00,SSW,197,5.0,12.0,44,0.00,,,-99.99,227.000000,,2013-01-18 19:33:00,
2013-01-18 14:43:00,38.0,18.0,-100.00,SSW,197,5.0,12.0,44,0.00,,,-99.99,227.000000,,2013-01-18 19:43:00,
2013-01-18 14:52:00,38.0,18.0,-100.00,SSW,197,5.0,12.0,44,0.00,,,-99.99,227.000000,,2013-01-18 19:52:00,
2013-01-18 15:23:00,39.0,18.0,-100.00,SSE,168,8.0,12.0,42,0.00,,,0.08,279.000000,,2013-01-18 20:23:00,
2013-01-18 15:33:00,39.0,18.0,-100.00,SSE,168,8.0,12.0,42,0.00,,,0.08,279.000000,,2013-01-18 20:33:00,
2013-01-18 15:43:00,39.0,18.0,-100.00,SSE,168,8.0,12.0,42,0.00,,,0.08,279.000000,,2013-01-18 20:43:00,
2013-01-18 15:53:00,39.0,18.0,-100.00,SSE,168,8.0,12.0,42,0.00,,,0.08,279.000000,,2013-01-18 20:53:00,
2013-01-18 16:23:00,40.0,19.0,-100.00,South,187,7.0,14.0,43,0.00,,,0.04,213.000000,,2013-01-18 21:23:00,
2013-01-18 16:33:00,40.0,19.0,-100.00,South,187,7.0,14.0,43,0.00,,,0.04,213.000000,,2013-01-18 21:33:00,
2013-01-18 16:43:00,40.0,19.0,-100.00,South,187,7.0,14.0,43,0.00,,,0.04,213.000000,,2013-01-18 21:43:00,
2013-01-18 16:52:00,40.0,19.0,-100.00,South,187,7.0,14.0,43,0.00,,,0.04,213.000000,,2013-01-18 21:52:00,
2013-01-18 17:23:00,39.0,20.0,-100.00,South,180,5.0,15.0,46,0.00,,,0.02,114.000000,,2013-01-18 22:23:00,
2013-01-18 17:33:00,39.0,20.0,-100.00,South,180,5.0,15.0,46,0.00,,,0.02,114.000000,,2013-01-18 22:33:00,
2013-01-18 17:43:00,39.0,20.0,-100.00,South,180,5.0,15.0,46,0.00,,,0.02,114.000000,,2013-01-18 22:43:00,
2013-01-18 17:52:00,39.0,20.0,-100.00,South,180,5.0,15.0,46,0.00,,,0.02,114.000000,,2013-01-18 22:52:00,
2013-01-18 18:23:00,36.0,21.0,-100.00,South,173,4.0,12.0,55,0.00,,,0.02,9.000000,,2013-01-18 23:23:00,
2013-01-18 18:33:00,36.0,21.0,-100.00,South,173,4.0,12.0,55,0.00,,,0.02,9.000000,,2013-01-18 23:33:00,
2013-01-18 18:43:00,36.0,21.0,-100.00,South,173,4.0,12.0,55,0.00,,,0.02,9.000000,,2013-01-18 23:43:00,
2013-01-18 18:52:00,36.0,21.0,-100.00,South,173,4.0,12.0,55,0.00,,,0.02,9.000000,,2013-01-18 23:52:00,
2013-01-18 19:23:00,35.0,22.0,-100.00,South,177,5.0,11.0,59,0.00,,,0.02,0.000000,,2013-01-19 00:23:00,
2013-01-18 19:33:00,35.0,22.0,-100.00,South,177,5.0,11.0,59,0.00,,,0.02,0.000000,,2013-01-19 00:33:00,
2013-01-18 19:43:00,35.0,22.0,-100.00,South,177,5.0,11.0,59,0.00,,,0.02,0.000000,,2013-01-19 00:43:00,
2013-01-18 19:53:00,35.0,22.0,-100.00,South,177,5.0,11.0,59,0.00,,,0.02,0.000000,,2013-01-19 00:53:00,
2013-01-18 20:23:00,35.0,23.0,-100.00,South,191,5.0,11.0,62,0.00,,,0.02,0.000000,,2013-01-19 01:23:00,
2013-01-18 20:33:00,35.0,23.0,-100.00,South,191,5.0,11.0,62,0.00,,,0.02,0.000000,,2013-01-19 01:33:00,
2013-01-18 20:43:00,35.0,23.0,-100.00,South,191,5.0,11.0,62,0.00,,,0.02,0.000000,,2013-01-19 01:43:00,
2013-01-18 20:52:00,35.0,23.0,-100.00,South,191,5.0,11.0,62,0.00,,,0.02,0.000000,,2013-01-19 01:52:00,
2013-01-18 21:23:00,35.0,23.0,-100.00,SSW,205,5.0,12.0,61,0.00,,,0.02,0.000000,,2013-01-19 02:23:00,
2013-01-18 21:33:00,35.0,23.0,-100.00,SSW,205,5.0,12.0,61,0.00,,,0.02,0.000000,,2013-01-19 02:33:00,
2013-01-18 21:43:00,35.0,23.0,-100.00,SSW,205,5.0,12.0,61,0.00,,,0.02,0.000000,,2013-01-19 02:43:00,
2013-01-18 21:53:00,35.0,23.0,-100.00,SSW,205,5.0,12.0,61,0.00,,,0.02,0.000000,,2013-01-19 02:53:00,
2013-01-18 22:23:00,35.0,22.0,-100.00,SSW,197,6.0,12.0,58,0.00,,,-99.99,0.000000,,2013-01-19 03:23:00,
2013-01-18 22:33:00,35.0,22.0,-100.00,SSW,197,6.0,12.0,58,0.00,,,-99.99,0.000000,,2013-01-19 03:33:00,
2013-01-18 22:43:00,35.0,22.0,-100.00,SSW,197,6.0,12.0,58,0.00,,,-99.99,0.000000,,2013-01-19 03:43:00,
2013-01-18 22:52:00,35.0,22.0,-100.00,SSW,197,6.0,12.0,58,0.00,,,-99.99,0.000000,,2013-01-19 03:52:00,
2013-01-18 23:22:00,36.0,21.0,-100.00,SSW,208,7.0,14.0,55,0.00,,,0.02,0.000000,,2013-01-19 04:22:00,
2013-01-18 23:33:00,36.0,21.0,-100.00,SSW,208,7.0,14.0,55,0.00,,,0.02,0.000000,,2013-01-19 04:33:00,
2013-01-18 23:42:00,36.0,21.0,-100.00,SSW,208,7.0,14.0,55,0.00,,,0.02,0.000000,,2013-01-19 04:42:00,
2013-01-18 23:52:00,36.0,21.0,-100.00,SSW,208,7.0,14.0,55,0.00,,,0.02,0.000000,,2013-01-19 04:52:00,